createdAt,value
2023-03-06T00:02:57.003Z,48.67
2023-03-06T00:06:04.189Z,26.31
2023-03-06T00:09:10.754Z,26.52
2023-03-06T00:12:17.526Z,38.02
2023-03-06T00:15:24.255Z,30.35
2023-03-06T00:18:33.672Z,33.06
2023-03-06T00:21:39.664Z,35.85
2023-03-06T00:24:47.317Z,37.84
2023-03-06T00:27:53.937Z,63.21
2023-03-06T00:31:01.423Z,43.85
2023-03-06T00:34:11.750Z,32.51
2023-03-06T00:37:19.325Z,32.36
2023-03-06T00:40:25.564Z,32.76
2023-03-06T00:43:33.025Z,33.34
2023-03-06T00:46:39.379Z,33.11
2023-03-06T00:49:48.735Z,31.98
2023-03-06T00:52:54.609Z,30.53
2023-03-06T00:56:01.263Z,28.82
2023-03-06T00:59:08.674Z,30.39
2023-03-06T01:02:15.612Z,31.46
2023-03-06T01:05:24.979Z,34.22
2023-03-06T01:08:31.704Z,36.57
2023-03-06T01:11:37.474Z,38.65
2023-03-06T01:14:44.182Z,39.75
2023-03-06T01:17:50.199Z,38.97
2023-03-06T01:20:59.369Z,39.01
2023-03-06T01:24:05.182Z,41.37
2023-03-06T01:27:12.192Z,43.05
2023-03-06T01:30:18.578Z,47.18
2023-03-06T01:33:25.467Z,49.64
2023-03-06T01:36:33.945Z,46.91
2023-03-06T01:39:42.488Z,46.54
2023-03-06T01:42:48.343Z,46.57
2023-03-06T01:46:42.395Z,44.32
2023-03-06T01:49:48.261Z,43.70
2023-03-06T01:53:03.985Z,42.42
2023-03-06T01:56:11.171Z,42.58
2023-03-06T01:59:19.479Z,44.72
2023-03-06T02:02:25.966Z,48.38
2023-03-06T02:05:32.848Z,50.47
2023-03-06T02:08:43.107Z,51.00
2023-03-06T02:11:49.833Z,51.50
2023-03-06T02:14:56.783Z,47.09
2023-03-06T02:18:04.176Z,45.11
2023-03-06T02:21:13.171Z,43.80
2023-03-06T02:24:40.522Z,49.06
2023-03-06T02:27:49.241Z,45.72
2023-03-06T02:30:59.940Z,38.25
2023-03-06T02:34:31.202Z,36.65
2023-03-06T02:37:37.879Z,36.26
2023-03-06T02:40:49.978Z,35.38
2023-03-06T02:43:59.361Z,36.45
2023-03-06T02:47:05.230Z,36.87
2023-03-06T02:50:13.647Z,34.72
2023-03-06T02:53:22.541Z,34.85
2023-03-06T02:56:29.133Z,35.47
2023-03-06T02:59:38.775Z,35.27
2023-03-06T03:02:47.057Z,35.15
2023-03-06T03:05:52.949Z,36.13
2023-03-06T03:09:04.070Z,37.20
2023-03-06T03:12:11.365Z,37.15
2023-03-06T03:15:22.124Z,41.91
2023-03-06T03:18:27.893Z,42.72
2023-03-06T03:21:34.755Z,41.37
2023-03-06T03:24:40.641Z,36.67
2023-03-06T03:27:47.445Z,35.26
2023-03-06T03:30:55.978Z,36.51
2023-03-06T03:34:04.844Z,37.04
2023-03-06T03:37:14.169Z,39.54
2023-03-06T03:40:22.696Z,38.90
2023-03-06T03:43:29.988Z,38.36
2023-03-06T03:46:41.371Z,40.13
2023-03-06T03:49:52.152Z,38.12
2023-03-06T03:53:00.225Z,36.71
2023-03-06T03:56:06.837Z,35.00
2023-03-06T03:59:18.819Z,34.27
2023-03-06T04:02:38.148Z,32.79
2023-03-06T04:05:54.107Z,32.05
2023-03-06T04:09:00.434Z,32.04
2023-03-06T04:12:08.960Z,31.64
2023-03-06T04:15:16.302Z,31.19
2023-03-06T04:18:27.487Z,35.06
2023-03-06T04:21:37.900Z,37.96
2023-03-06T04:24:45.785Z,35.66
2023-03-06T04:27:52.361Z,33.43
2023-03-06T04:30:59.135Z,36.71
2023-03-06T04:34:07.873Z,45.39
2023-03-06T04:37:24.283Z,36.47
2023-03-06T04:40:34.805Z,34.86
2023-03-06T04:43:41.807Z,34.60
2023-03-06T04:46:47.610Z,37.87
2023-03-06T04:49:56.964Z,40.30
2023-03-06T04:53:04.929Z,41.42
2023-03-06T04:56:12.070Z,38.84
2023-03-06T04:59:17.841Z,34.56
2023-03-06T05:02:24.862Z,32.08
2023-03-06T05:05:33.983Z,32.31
2023-03-06T05:08:40.544Z,32.68
2023-03-06T05:11:46.312Z,32.84
2023-03-06T05:14:52.925Z,28.08
2023-03-06T05:17:58.700Z,26.91
2023-03-06T05:21:09.303Z,27.11
2023-03-06T05:24:15.206Z,27.97
2023-03-06T05:27:21.893Z,26.56
2023-03-06T05:30:28.146Z,30.55
2023-03-06T05:33:35.516Z,32.74
2023-03-06T05:36:44.635Z,35.41
2023-03-06T05:39:51.306Z,34.58
2023-03-06T05:42:57.071Z,34.91
2023-03-06T05:46:05.725Z,34.60
2023-03-06T05:49:11.848Z,35.00
2023-03-06T05:52:21.494Z,33.77
2023-03-06T05:55:29.801Z,29.91
2023-03-06T05:58:38.022Z,28.73
2023-03-06T06:01:43.964Z,28.57
2023-03-06T06:04:51.268Z,28.21
2023-03-06T06:07:59.650Z,28.02
2023-03-06T06:11:12.322Z,27.57
2023-03-06T06:14:31.220Z,27.52
2023-03-06T06:23:26.874Z,29.74
2023-03-06T06:27:10.552Z,29.79
2023-03-06T06:30:48.847Z,29.86
2023-03-06T06:34:25.987Z,32.08
2023-03-06T06:38:05.998Z,32.61
2023-03-06T06:42:11.026Z,33.28
2023-03-06T06:45:34.549Z,32.13
2023-03-06T06:48:41.127Z,35.36
2023-03-06T06:51:47.029Z,36.87
2023-03-06T06:54:53.853Z,35.19
2023-03-06T06:58:02.225Z,35.97
2023-03-06T07:01:10.329Z,35.14
2023-03-06T07:04:16.920Z,33.00
2023-03-06T07:07:25.416Z,30.68
2023-03-06T07:10:32.052Z,28.43
2023-03-06T07:13:41.623Z,26.84
2023-03-06T07:16:47.364Z,26.31
2023-03-06T07:19:53.996Z,25.38
2023-03-06T07:22:59.830Z,25.74
2023-03-06T07:26:07.060Z,24.90
2023-03-06T07:29:15.494Z,24.97
2023-03-06T07:32:22.089Z,25.78
2023-03-06T07:35:29.894Z,25.42
2023-03-06T07:38:36.570Z,27.12
2023-03-06T07:41:42.420Z,27.56
2023-03-06T07:44:51.650Z,26.67
2023-03-06T07:47:57.826Z,24.86
2023-03-06T07:51:10.282Z,25.12
2023-03-06T07:54:16.193Z,26.71
2023-03-06T07:57:22.929Z,26.24
2023-03-06T08:00:31.495Z,27.15
2023-03-06T08:03:41.364Z,27.50
2023-03-06T08:06:47.134Z,23.94
2023-03-06T08:09:53.946Z,24.81
2023-03-06T08:13:00.021Z,23.70
2023-03-06T08:16:10.674Z,21.84
2023-03-06T08:19:16.518Z,20.46
2023-03-06T08:22:23.884Z,19.92
2023-03-06T08:25:29.742Z,20.46
2023-03-06T08:28:37.022Z,21.00
2023-03-06T08:31:48.663Z,20.69
2023-03-06T08:34:56.131Z,19.02
2023-03-06T08:38:02.045Z,18.13
2023-03-06T08:41:08.841Z,17.04
2023-03-06T08:44:15.667Z,17.29
2023-03-06T08:47:24.915Z,18.03
2023-03-06T08:50:30.862Z,17.66
2023-03-06T08:53:43.084Z,17.11
2023-03-06T08:56:49.527Z,17.34
2023-03-06T08:59:56.079Z,17.06
2023-03-06T09:03:04.584Z,15.75
2023-03-06T09:06:11.262Z,16.84
2023-03-06T09:09:18.291Z,16.46
2023-03-06T09:12:24.031Z,14.75
2023-03-06T09:15:30.690Z,14.86
2023-03-06T09:18:39.659Z,15.62
2023-03-06T09:21:46.280Z,15.78
2023-03-06T09:24:52.659Z,14.44
2023-03-06T09:28:10.890Z,14.14
2023-03-06T09:31:21.786Z,14.95
2023-03-06T09:34:31.007Z,14.48
2023-03-06T09:37:37.247Z,15.63
2023-03-06T09:44:21.492Z,16.03
2023-03-06T09:47:50.595Z,16.53
2023-03-06T09:51:13.128Z,17.01
2023-03-06T09:54:24.064Z,15.81
2023-03-06T09:57:36.252Z,15.94
2023-03-06T10:00:54.442Z,14.31
2023-03-06T10:04:27.094Z,14.24
2023-03-06T10:07:49.895Z,15.20
2023-03-06T10:11:05.707Z,16.95
2023-03-06T10:14:26.763Z,16.22
2023-03-06T10:17:41.648Z,15.38
2023-03-06T10:21:16.978Z,13.36
2023-03-06T10:24:56.232Z,13.53
2023-03-06T10:28:18.562Z,12.88
2023-03-06T10:31:29.419Z,12.10
2023-03-06T10:34:44.379Z,11.29
2023-03-06T10:37:51.902Z,12.46
2023-03-06T10:41:19.609Z,10.46
2023-03-06T10:44:29.110Z,10.20
2023-03-06T10:47:37.765Z,11.10
2023-03-06T10:50:43.771Z,10.19
2023-03-06T10:53:58.996Z,9.25
2023-03-06T10:57:32.891Z,9.18
2023-03-06T11:00:39.679Z,9.44
2023-03-06T11:03:45.706Z,9.60
2023-03-06T11:07:08.480Z,9.89
2023-03-06T11:10:23.832Z,9.39
2023-03-06T11:13:36.178Z,10.10
2023-03-06T11:16:42.746Z,8.13
2023-03-06T11:19:49.417Z,8.71
2023-03-06T11:23:03.209Z,7.91
2023-03-06T11:26:32.596Z,9.16
2023-03-06T11:29:46.294Z,10.07
2023-03-06T11:33:02.026Z,10.26
2023-03-06T11:36:21.553Z,11.68
2023-03-06T11:39:39.836Z,10.00
2023-03-06T11:42:59.102Z,10.09
2023-03-06T11:46:22.977Z,8.04
2023-03-06T11:49:41.479Z,7.05
2023-03-06T11:52:56.743Z,10.60
2023-03-06T11:56:23.025Z,10.50
2023-03-06T12:00:24.301Z,8.70
2023-03-06T12:04:16.753Z,9.77
2023-03-06T12:07:35.085Z,9.36
2023-03-06T12:10:52.441Z,8.46
2023-03-06T12:14:25.887Z,8.12
2023-03-06T12:17:57.857Z,6.82
2023-03-06T12:21:23.375Z,5.95
2023-03-06T12:25:21.294Z,5.62
2023-03-06T12:29:05.608Z,6.80
2023-03-06T12:32:30.651Z,7.07
2023-03-06T12:36:17.114Z,7.09
2023-03-06T12:39:45.047Z,6.44
2023-03-06T12:43:40.587Z,5.31
2023-03-06T12:46:54.888Z,6.17
2023-03-06T12:50:10.471Z,6.76
2023-03-06T12:53:30.500Z,7.74
2023-03-06T12:56:38.758Z,6.48
2023-03-06T12:59:48.837Z,7.12
2023-03-06T13:03:21.589Z,7.56
2023-03-06T13:07:05.688Z,7.97
2023-03-06T13:10:25.668Z,8.91
2023-03-06T13:13:37.227Z,9.36
2023-03-06T13:16:43.898Z,9.98
2023-03-06T13:19:50.902Z,9.85
2023-03-06T13:22:57.836Z,8.95
2023-03-06T13:26:12.783Z,9.83
2023-03-06T13:29:55.762Z,10.77
2023-03-06T13:33:01.639Z,18.13
2023-03-06T13:36:27.096Z,23.09
2023-03-06T13:40:29.625Z,11.03
2023-03-06T13:43:45.665Z,10.87
2023-03-06T13:47:02.740Z,10.19
2023-03-06T13:50:38.382Z,10.20
2023-03-06T13:54:30.742Z,10.92
2023-03-06T13:58:04.076Z,11.93
2023-03-06T14:01:43.070Z,12.22
2023-03-06T14:05:00.743Z,12.04
2023-03-06T14:08:17.564Z,13.48
2023-03-06T14:11:25.026Z,14.45
2023-03-06T14:14:45.442Z,12.52
2023-03-06T14:18:03.433Z,17.27
2023-03-06T14:21:15.990Z,9.63
2023-03-06T14:24:34.562Z,7.99
2023-03-06T14:27:56.325Z,10.07
2023-03-06T14:31:08.849Z,11.62
2023-03-06T14:34:26.758Z,12.80
2023-03-06T14:37:35.094Z,10.97
2023-03-06T14:40:48.624Z,12.34
2023-03-06T14:44:10.022Z,17.06
2023-03-06T14:47:28.722Z,20.62
2023-03-06T14:50:41.021Z,20.08
2023-03-06T14:53:49.847Z,14.16
2023-03-06T14:57:06.144Z,12.30
2023-03-06T15:00:24.199Z,12.51
2023-03-06T15:03:45.416Z,13.67
2023-03-06T15:06:56.925Z,11.97
2023-03-06T15:10:10.535Z,12.29
2023-03-06T15:13:26.268Z,12.65
2023-03-06T15:16:34.973Z,13.07
2023-03-06T15:19:43.380Z,14.44
2023-03-06T15:22:54.165Z,17.74
2023-03-06T15:26:03.898Z,16.58
2023-03-06T15:29:26.665Z,23.81
2023-03-06T15:32:42.619Z,17.90
2023-03-06T15:35:58.924Z,20.97
2023-03-06T15:39:41.354Z,26.13
2023-03-06T15:42:50.120Z,19.25
2023-03-06T15:46:03.580Z,28.40
2023-03-06T15:49:20.768Z,28.49
2023-03-06T15:52:27.536Z,35.89
2023-03-06T15:55:36.885Z,28.71
2023-03-06T15:58:44.777Z,26.58
2023-03-06T16:01:53.244Z,29.82
2023-03-06T16:05:02.558Z,30.76
2023-03-06T16:08:11.030Z,30.62
2023-03-06T16:11:35.340Z,27.86
2023-03-06T16:14:50.757Z,33.11
2023-03-06T16:17:56.747Z,48.94
2023-03-06T16:21:03.597Z,38.72
2023-03-06T16:24:09.865Z,43.94
2023-03-06T16:27:25.719Z,45.22
2023-03-06T16:30:35.704Z,41.70
2023-03-06T16:33:42.596Z,58.75
2023-03-06T16:36:50.299Z,84.05
2023-03-06T16:39:56.840Z,318.21
2023-03-06T16:43:05.278Z,870.37
2023-03-06T16:46:20.612Z,686.62
2023-03-06T16:49:27.953Z,622.18
2023-03-06T16:52:34.871Z,1049.36
2023-03-06T16:55:40.808Z,616.11
2023-03-06T16:58:52.023Z,247.58
2023-03-06T17:01:57.855Z,100.47
2023-03-06T17:05:04.644Z,101.83
2023-03-06T17:08:10.670Z,71.05
2023-03-06T17:11:18.118Z,76.59
2023-03-06T17:14:26.591Z,175.20
2023-03-06T17:17:33.237Z,83.44
2023-03-06T17:20:39.085Z,86.56
2023-03-06T17:23:47.042Z,35.59
2023-03-06T17:26:53.048Z,36.04
2023-03-06T17:30:04.480Z,39.50
2023-03-06T17:33:10.312Z,37.06
2023-03-06T17:36:19.548Z,40.03
2023-03-06T17:39:26.027Z,33.30
2023-03-06T17:42:32.689Z,35.43
2023-03-06T17:45:41.999Z,26.75
2023-03-06T17:48:49.655Z,24.69
2023-03-06T17:51:56.640Z,28.24
2023-03-06T17:55:03.203Z,26.91
2023-03-06T18:01:21.641Z,29.07
2023-03-06T18:04:28.661Z,32.25
2023-03-06T18:07:34.476Z,33.64
2023-03-06T18:10:43.514Z,33.09
2023-03-06T18:13:49.323Z,43.53
2023-03-06T18:16:58.508Z,237.10
2023-03-06T18:20:04.627Z,378.39
2023-03-06T18:23:11.903Z,124.26
2023-03-06T18:26:21.007Z,42.07
2023-03-06T18:29:27.711Z,111.95
2023-03-06T18:32:36.212Z,47.23
2023-03-06T18:35:44.214Z,36.83
2023-03-06T18:38:50.190Z,36.19
2023-03-06T18:41:56.896Z,113.45
2023-03-06T18:45:03.236Z,111.36
2023-03-06T18:48:12.575Z,66.47
2023-03-06T18:51:20.376Z,32.54
2023-03-06T18:54:28.748Z,29.59
2023-03-06T18:57:34.595Z,34.33
2023-03-06T19:00:41.218Z,30.63
2023-03-06T19:03:53.133Z,27.43
2023-03-06T19:06:59.845Z,27.94
2023-03-06T19:10:06.149Z,27.13
2023-03-06T19:13:14.225Z,27.99
2023-03-06T19:16:23.266Z,29.91
2023-03-06T19:19:32.721Z,31.00
2023-03-06T19:22:38.601Z,31.72
2023-03-06T19:25:45.437Z,31.18
2023-03-06T19:28:56.570Z,31.29
2023-03-06T19:32:04.428Z,32.41
2023-03-06T19:35:13.850Z,34.43
2023-03-06T19:38:21.026Z,34.36
2023-03-06T19:41:28.157Z,36.16
2023-03-06T19:44:35.692Z,34.94
2023-03-06T19:47:41.682Z,35.55
2023-03-06T19:50:52.464Z,38.12
2023-03-06T19:53:59.817Z,36.20
2023-03-06T19:57:06.870Z,34.12
2023-03-06T20:00:16.228Z,34.25
2023-03-06T20:03:22.863Z,35.41
2023-03-06T20:06:36.809Z,34.94
2023-03-06T20:09:44.025Z,36.06
2023-03-06T20:12:55.144Z,35.66
2023-03-06T20:16:06.292Z,34.19
2023-03-06T20:19:13.924Z,32.97
2023-03-06T20:22:23.598Z,34.05
2023-03-06T20:25:29.989Z,35.58
2023-03-06T20:28:38.077Z,34.80
2023-03-06T20:31:45.627Z,35.94
2023-03-06T20:34:55.369Z,36.07
2023-03-06T20:38:04.151Z,33.52
2023-03-06T20:41:18.573Z,33.30
2023-03-06T20:44:24.405Z,35.08
2023-03-06T20:47:32.883Z,39.77
2023-03-06T20:50:39.022Z,49.14
2023-03-06T20:53:50.838Z,50.93
2023-03-06T20:56:58.235Z,45.24
2023-03-06T21:00:05.412Z,41.28
2023-03-06T21:03:11.355Z,48.08
2023-03-06T21:06:18.907Z,43.24
2023-03-06T21:09:27.268Z,41.41
2023-03-06T21:12:36.429Z,43.81
2023-03-06T21:15:42.702Z,44.35
2023-03-06T21:18:50.277Z,39.79
2023-03-06T21:21:56.328Z,37.99
2023-03-06T21:25:05.558Z,35.51
2023-03-06T21:28:11.307Z,33.76
2023-03-06T21:31:22.197Z,34.44
2023-03-06T21:34:28.347Z,35.72
2023-03-06T21:37:35.283Z,37.90
2023-03-06T21:40:45.525Z,38.00
2023-03-06T21:43:52.106Z,38.08
2023-03-06T21:46:57.796Z,35.21
2023-03-06T21:50:04.352Z,33.29
2023-03-06T21:53:12.463Z,37.10
2023-03-06T21:56:25.486Z,37.33
2023-03-06T21:59:31.425Z,39.43
2023-03-06T22:02:38.500Z,42.11
2023-03-06T22:05:44.786Z,43.02
2023-03-06T22:08:51.855Z,43.92
2023-03-06T22:12:00.393Z,43.23
2023-03-06T22:15:09.560Z,42.95
2023-03-06T22:18:16.054Z,40.61
2023-03-06T22:21:26.057Z,39.01
2023-03-06T22:24:31.881Z,38.94
2023-03-06T22:27:41.152Z,39.75
2023-03-06T22:30:46.891Z,38.75
2023-03-06T22:33:55.343Z,37.82
2023-03-06T22:37:01.328Z,38.50
2023-03-06T22:40:09.809Z,38.40
2023-03-06T22:43:20.164Z,39.19
2023-03-06T22:46:27.974Z,41.55
2023-03-06T22:49:33.818Z,41.17
2023-03-06T22:52:40.460Z,40.61
2023-03-06T22:55:46.272Z,40.05
2023-03-06T22:58:55.585Z,38.52
2023-03-06T23:02:01.441Z,33.23
2023-03-06T23:05:09.833Z,31.56
2023-03-06T23:08:17.307Z,30.61
2023-03-06T23:11:26.001Z,31.17
2023-03-06T23:14:53.182Z,31.26
2023-03-06T23:18:18.213Z,32.38
2023-03-06T23:21:43.028Z,36.86
2023-03-06T23:25:09.745Z,39.23
2023-03-06T23:28:15.801Z,40.46
2023-03-06T23:31:28.737Z,40.88
2023-03-06T23:34:34.746Z,43.88
2023-03-06T23:37:42.830Z,43.84
2023-03-06T23:40:49.755Z,42.46
2023-03-06T23:43:56.642Z,41.53
2023-03-06T23:47:05.651Z,40.77
2023-03-06T23:50:14.203Z,41.31
2023-03-06T23:53:20.645Z,40.37
2023-03-06T23:56:27.920Z,42.03
2023-03-06T23:59:33.764Z,42.07
